sensor_id;sensor_type;location;lat;lon;timestamp;temperature;humidity
13652;DHT22;6899;51.546;6.912;2023-06-14T00:01:56;16.10;99.90
13652;DHT22;6899;51.546;6.912;2023-06-14T00:04:23;16.30;99.90
13652;DHT22;6899;51.546;6.912;2023-06-14T00:06:50;16.20;99.90
13652;DHT22;6899;51.546;6.912;2023-06-14T00:09:18;16.30;99.90
13652;DHT22;6899;51.546;6.912;2023-06-14T00:11:44;16.30;99.90
13652;DHT22;6899;51.546;6.912;2023-06-14T00:14:11;16.30;99.90
13652;DHT22;6899;51.546;6.912;2023-06-14T00:16:39;16.10;99.90
13652;DHT22;6899;51.546;6.912;2023-06-14T00:19:09;16.20;99.90
13652;DHT22;6899;51.546;6.912;2023-06-14T00:21:36;16.30;99.90
13652;DHT22;6899;51.546;6.912;2023-06-14T00:24:04;16.30;99.90
13652;DHT22;6899;51.546;6.912;2023-06-14T00:26:34;16.50;99.80
13652;DHT22;6899;51.546;6.912;2023-06-14T00:29:01;16.40;99.90
13652;DHT22;6899;51.546;6.912;2023-06-14T00:31:27;16.40;99.90
13652;DHT22;6899;51.546;6.912;2023-06-14T00:33:54;16.50;98.50
13652;DHT22;6899;51.546;6.912;2023-06-14T00:36:22;16.50;97.60
13652;DHT22;6899;51.546;6.912;2023-06-14T00:38:49;16.50;99.50
13652;DHT22;6899;51.546;6.912;2023-06-14T00:41:16;16.50;97.40
13652;DHT22;6899;51.546;6.912;2023-06-14T00:43:45;16.60;96.60
13652;DHT22;6899;51.546;6.912;2023-06-14T00:46:12;16.60;98.90
13652;DHT22;6899;51.546;6.912;2023-06-14T00:48:39;16.60;99.90
13652;DHT22;6899;51.546;6.912;2023-06-14T00:51:06;16.50;98.00
13652;DHT22;6899;51.546;6.912;2023-06-14T00:53:35;16.50;98.50
13652;DHT22;6899;51.546;6.912;2023-06-14T00:56:02;16.60;95.40
13652;DHT22;6899;51.546;6.912;2023-06-14T00:58:29;16.60;96.10
13652;DHT22;6899;51.546;6.912;2023-06-14T01:01:00;16.60;98.80
13652;DHT22;6899;51.546;6.912;2023-06-14T01:03:27;16.50;99.90
13652;DHT22;6899;51.546;6.912;2023-06-14T01:06:15;16.50;98.80
13652;DHT22;6899;51.546;6.912;2023-06-14T01:08:59;16.40;97.70
13652;DHT22;6899;51.546;6.912;2023-06-14T01:11:31;16.30;96.10
13652;DHT22;6899;51.546;6.912;2023-06-14T01:14:00;16.40;96.20
13652;DHT22;6899;51.546;6.912;2023-06-14T01:16:32;16.40;95.10
13652;DHT22;6899;51.546;6.912;2023-06-14T01:19:01;16.40;96.00
13652;DHT22;6899;51.546;6.912;2023-06-14T01:21:28;16.40;95.10
13652;DHT22;6899;51.546;6.912;2023-06-14T01:23:56;16.40;95.50
13652;DHT22;6899;51.546;6.912;2023-06-14T01:26:24;16.30;96.10
13652;DHT22;6899;51.546;6.912;2023-06-14T01:28:52;16.30;94.90
13652;DHT22;6899;51.546;6.912;2023-06-14T01:31:27;16.30;95.50
13652;DHT22;6899;51.546;6.912;2023-06-14T01:34:05;16.20;94.30
13652;DHT22;6899;51.546;6.912;2023-06-14T01:36:38;16.10;95.40
13652;DHT22;6899;51.546;6.912;2023-06-14T01:39:08;16.30;95.50
13652;DHT22;6899;51.546;6.912;2023-06-14T01:41:36;16.10;98.80
13652;DHT22;6899;51.546;6.912;2023-06-14T01:44:09;16.10;94.60
13652;DHT22;6899;51.546;6.912;2023-06-14T01:46:36;16.10;97.60
13652;DHT22;6899;51.546;6.912;2023-06-14T01:49:03;15.90;99.90
13652;DHT22;6899;51.546;6.912;2023-06-14T01:51:30;15.80;96.10
13652;DHT22;6899;51.546;6.912;2023-06-14T01:53:57;15.70;99.90
13652;DHT22;6899;51.546;6.912;2023-06-14T01:56:25;15.60;99.90
13652;DHT22;6899;51.546;6.912;2023-06-14T01:58:53;15.50;99.90
13652;DHT22;6899;51.546;6.912;2023-06-14T02:01:20;15.40;99.90
13652;DHT22;6899;51.546;6.912;2023-06-14T02:03:47;15.30;99.90
13652;DHT22;6899;51.546;6.912;2023-06-14T02:06:14;15.10;99.90
13652;DHT22;6899;51.546;6.912;2023-06-14T02:08:42;15.00;99.90
13652;DHT22;6899;51.546;6.912;2023-06-14T02:11:09;14.90;99.90
13652;DHT22;6899;51.546;6.912;2023-06-14T02:13:37;14.80;99.90
13652;DHT22;6899;51.546;6.912;2023-06-14T02:16:03;14.80;99.90
13652;DHT22;6899;51.546;6.912;2023-06-14T02:18:31;14.80;99.90
13652;DHT22;6899;51.546;6.912;2023-06-14T02:20:57;14.70;99.90
13652;DHT22;6899;51.546;6.912;2023-06-14T02:23:24;14.60;99.90
13652;DHT22;6899;51.546;6.912;2023-06-14T02:25:51;14.60;99.90
13652;DHT22;6899;51.546;6.912;2023-06-14T02:28:20;14.60;99.90
13652;DHT22;6899;51.546;6.912;2023-06-14T02:30:49;14.50;99.90
13652;DHT22;6899;51.546;6.912;2023-06-14T02:33:16;14.40;99.90
13652;DHT22;6899;51.546;6.912;2023-06-14T02:35:43;14.40;99.90
13652;DHT22;6899;51.546;6.912;2023-06-14T02:38:10;14.30;99.90
13652;DHT22;6899;51.546;6.912;2023-06-14T02:40:37;14.30;99.90
13652;DHT22;6899;51.546;6.912;2023-06-14T02:43:03;14.20;99.90
13652;DHT22;6899;51.546;6.912;2023-06-14T02:45:30;14.20;99.90
13652;DHT22;6899;51.546;6.912;2023-06-14T02:47:58;14.30;99.90
13652;DHT22;6899;51.546;6.912;2023-06-14T02:50:25;14.20;99.90
13652;DHT22;6899;51.546;6.912;2023-06-14T02:52:53;14.10;99.90
13652;DHT22;6899;51.546;6.912;2023-06-14T02:55:21;14.20;99.90
13652;DHT22;6899;51.546;6.912;2023-06-14T02:57:48;14.20;99.90
13652;DHT22;6899;51.546;6.912;2023-06-14T03:00:15;14.30;99.90
13652;DHT22;6899;51.546;6.912;2023-06-14T03:02:42;14.30;99.90
13652;DHT22;6899;51.546;6.912;2023-06-14T03:05:11;14.20;99.90
13652;DHT22;6899;51.546;6.912;2023-06-14T03:07:38;14.10;99.90
13652;DHT22;6899;51.546;6.912;2023-06-14T03:10:07;14.20;99.90
13652;DHT22;6899;51.546;6.912;2023-06-14T03:12:35;14.30;99.90
13652;DHT22;6899;51.546;6.912;2023-06-14T03:15:02;14.40;99.90
13652;DHT22;6899;51.546;6.912;2023-06-14T03:17:30;14.40;99.90
13652;DHT22;6899;51.546;6.912;2023-06-14T03:19:59;14.40;99.90
13652;DHT22;6899;51.546;6.912;2023-06-14T03:22:30;14.40;99.90
13652;DHT22;6899;51.546;6.912;2023-06-14T03:24:58;14.30;99.90
13652;DHT22;6899;51.546;6.912;2023-06-14T03:27:24;14.40;99.90
13652;DHT22;6899;51.546;6.912;2023-06-14T03:29:54;14.30;99.90
13652;DHT22;6899;51.546;6.912;2023-06-14T03:32:20;14.30;99.90
13652;DHT22;6899;51.546;6.912;2023-06-14T03:34:47;14.30;99.90
13652;DHT22;6899;51.546;6.912;2023-06-14T03:37:14;14.40;99.90
13652;DHT22;6899;51.546;6.912;2023-06-14T03:39:42;14.40;99.90
13652;DHT22;6899;51.546;6.912;2023-06-14T03:42:12;14.50;99.90
13652;DHT22;6899;51.546;6.912;2023-06-14T03:44:39;14.50;99.90
13652;DHT22;6899;51.546;6.912;2023-06-14T03:47:06;14.40;99.90
13652;DHT22;6899;51.546;6.912;2023-06-14T03:49:33;14.60;99.90
13652;DHT22;6899;51.546;6.912;2023-06-14T03:52:00;14.60;99.90
13652;DHT22;6899;51.546;6.912;2023-06-14T03:54:27;14.70;99.90
13652;DHT22;6899;51.546;6.912;2023-06-14T03:56:56;14.70;99.90
13652;DHT22;6899;51.546;6.912;2023-06-14T03:59:23;14.70;99.90
13652;DHT22;6899;51.546;6.912;2023-06-14T04:01:53;14.70;99.90
13652;DHT22;6899;51.546;6.912;2023-06-14T04:04:20;14.70;99.90
13652;DHT22;6899;51.546;6.912;2023-06-14T04:06:47;14.80;99.90
13652;DHT22;6899;51.546;6.912;2023-06-14T04:09:15;14.90;99.90
13652;DHT22;6899;51.546;6.912;2023-06-14T04:11:42;14.90;99.90
13652;DHT22;6899;51.546;6.912;2023-06-14T04:14:10;14.90;99.90
13652;DHT22;6899;51.546;6.912;2023-06-14T04:16:37;15.00;99.90
13652;DHT22;6899;51.546;6.912;2023-06-14T04:19:07;15.10;99.90
13652;DHT22;6899;51.546;6.912;2023-06-14T04:21:33;15.10;99.90
13652;DHT22;6899;51.546;6.912;2023-06-14T04:24:01;15.20;99.90
13652;DHT22;6899;51.546;6.912;2023-06-14T04:26:27;15.30;99.90
13652;DHT22;6899;51.546;6.912;2023-06-14T04:28:55;15.40;99.90
13652;DHT22;6899;51.546;6.912;2023-06-14T04:31:28;15.40;99.90
13652;DHT22;6899;51.546;6.912;2023-06-14T04:33:59;15.50;99.90
13652;DHT22;6899;51.546;6.912;2023-06-14T04:36:25;15.40;99.90
13652;DHT22;6899;51.546;6.912;2023-06-14T04:38:53;15.50;99.90
13652;DHT22;6899;51.546;6.912;2023-06-14T04:41:20;15.70;99.90
13652;DHT22;6899;51.546;6.912;2023-06-14T04:43:48;15.80;99.90
13652;DHT22;6899;51.546;6.912;2023-06-14T04:46:15;15.80;99.90
13652;DHT22;6899;51.546;6.912;2023-06-14T04:48:47;16.00;99.90
13652;DHT22;6899;51.546;6.912;2023-06-14T04:51:16;16.00;99.90
13652;DHT22;6899;51.546;6.912;2023-06-14T04:53:46;16.00;99.90
13652;DHT22;6899;51.546;6.912;2023-06-14T04:56:14;16.10;99.90
13652;DHT22;6899;51.546;6.912;2023-06-14T04:58:42;16.10;99.90
13652;DHT22;6899;51.546;6.912;2023-06-14T05:01:09;16.30;99.90
13652;DHT22;6899;51.546;6.912;2023-06-14T05:03:36;17.30;99.90
13652;DHT22;6899;51.546;6.912;2023-06-14T05:06:04;17.90;97.20
13652;DHT22;6899;51.546;6.912;2023-06-14T05:08:34;18.40;93.70
13652;DHT22;6899;51.546;6.912;2023-06-14T05:11:01;18.90;91.60
13652;DHT22;6899;51.546;6.912;2023-06-14T05:13:28;20.00;87.70
13652;DHT22;6899;51.546;6.912;2023-06-14T05:15:54;20.90;78.00
13652;DHT22;6899;51.546;6.912;2023-06-14T05:18:21;22.00;67.90
13652;DHT22;6899;51.546;6.912;2023-06-14T05:20:48;22.70;63.00
13652;DHT22;6899;51.546;6.912;2023-06-14T05:23:16;23.50;57.30
13652;DHT22;6899;51.546;6.912;2023-06-14T05:25:43;24.20;56.90
13652;DHT22;6899;51.546;6.912;2023-06-14T05:28:11;24.80;54.20
13652;DHT22;6899;51.546;6.912;2023-06-14T05:30:38;25.50;49.60
13652;DHT22;6899;51.546;6.912;2023-06-14T05:33:06;25.40;48.90
13652;DHT22;6899;51.546;6.912;2023-06-14T05:35:32;25.80;47.90
13652;DHT22;6899;51.546;6.912;2023-06-14T05:37:59;25.40;45.80
13652;DHT22;6899;51.546;6.912;2023-06-14T05:40:27;25.80;48.10
13652;DHT22;6899;51.546;6.912;2023-06-14T05:42:54;26.10;46.70
13652;DHT22;6899;51.546;6.912;2023-06-14T05:45:21;25.60;46.20
13652;DHT22;6899;51.546;6.912;2023-06-14T05:47:48;25.50;46.40
13652;DHT22;6899;51.546;6.912;2023-06-14T05:50:16;25.60;48.00
13652;DHT22;6899;51.546;6.912;2023-06-14T05:52:42;25.90;45.10
13652;DHT22;6899;51.546;6.912;2023-06-14T05:55:09;25.80;45.80
13652;DHT22;6899;51.546;6.912;2023-06-14T05:57:38;25.80;44.40
13652;DHT22;6899;51.546;6.912;2023-06-14T06:00:07;25.70;45.30
13652;DHT22;6899;51.546;6.912;2023-06-14T06:02:37;25.90;45.90
13652;DHT22;6899;51.546;6.912;2023-06-14T06:05:04;26.10;45.30
13652;DHT22;6899;51.546;6.912;2023-06-14T06:07:31;26.20;46.60
13652;DHT22;6899;51.546;6.912;2023-06-14T06:09:59;26.30;45.00
13652;DHT22;6899;51.546;6.912;2023-06-14T06:12:25;26.80;44.50
13652;DHT22;6899;51.546;6.912;2023-06-14T06:14:53;27.40;42.80
13652;DHT22;6899;51.546;6.912;2023-06-14T06:17:20;27.30;42.90
13652;DHT22;6899;51.546;6.912;2023-06-14T06:19:47;26.30;43.80
13652;DHT22;6899;51.546;6.912;2023-06-14T06:22:14;26.00;44.70
13652;DHT22;6899;51.546;6.912;2023-06-14T06:24:41;26.50;44.80
13652;DHT22;6899;51.546;6.912;2023-06-14T06:27:07;26.30;42.40
13652;DHT22;6899;51.546;6.912;2023-06-14T06:29:34;26.30;42.50
13652;DHT22;6899;51.546;6.912;2023-06-14T06:32:03;27.00;42.20
13652;DHT22;6899;51.546;6.912;2023-06-14T06:34:30;26.80;41.70
13652;DHT22;6899;51.546;6.912;2023-06-14T06:36:57;26.90;42.50
13652;DHT22;6899;51.546;6.912;2023-06-14T06:39:23;26.80;42.20
13652;DHT22;6899;51.546;6.912;2023-06-14T06:41:50;26.20;40.70
13652;DHT22;6899;51.546;6.912;2023-06-14T06:44:17;26.70;45.00
13652;DHT22;6899;51.546;6.912;2023-06-14T06:46:44;27.90;43.60
13652;DHT22;6899;51.546;6.912;2023-06-14T06:49:12;28.50;40.00
13652;DHT22;6899;51.546;6.912;2023-06-14T06:51:41;28.80;41.50
13652;DHT22;6899;51.546;6.912;2023-06-14T06:54:08;28.10;39.60
13652;DHT22;6899;51.546;6.912;2023-06-14T06:56:35;28.40;39.20
13652;DHT22;6899;51.546;6.912;2023-06-14T06:59:02;27.80;39.00
13652;DHT22;6899;51.546;6.912;2023-06-14T07:01:29;28.00;40.30
13652;DHT22;6899;51.546;6.912;2023-06-14T07:03:56;28.40;38.90
13652;DHT22;6899;51.546;6.912;2023-06-14T07:06:24;27.70;41.00
13652;DHT22;6899;51.546;6.912;2023-06-14T07:08:52;27.50;40.00
13652;DHT22;6899;51.546;6.912;2023-06-14T07:11:19;27.30;40.80
13652;DHT22;6899;51.546;6.912;2023-06-14T07:13:52;28.30;40.90
13652;DHT22;6899;51.546;6.912;2023-06-14T07:16:19;28.40;39.60
13652;DHT22;6899;51.546;6.912;2023-06-14T07:18:45;29.00;39.30
13652;DHT22;6899;51.546;6.912;2023-06-14T07:21:12;28.70;38.50
13652;DHT22;6899;51.546;6.912;2023-06-14T07:23:40;28.00;38.60
13652;DHT22;6899;51.546;6.912;2023-06-14T07:26:07;27.80;38.50
13652;DHT22;6899;51.546;6.912;2023-06-14T07:28:34;27.50;39.10
13652;DHT22;6899;51.546;6.912;2023-06-14T07:31:01;27.70;39.30
13652;DHT22;6899;51.546;6.912;2023-06-14T07:33:28;27.00;40.20
13652;DHT22;6899;51.546;6.912;2023-06-14T07:35:54;27.60;40.00
13652;DHT22;6899;51.546;6.912;2023-06-14T07:38:21;28.20;39.20
13652;DHT22;6899;51.546;6.912;2023-06-14T07:40:49;27.90;39.20
13652;DHT22;6899;51.546;6.912;2023-06-14T07:43:16;27.50;39.40
13652;DHT22;6899;51.546;6.912;2023-06-14T07:45:46;27.50;39.40
13652;DHT22;6899;51.546;6.912;2023-06-14T07:48:13;27.30;39.80
13652;DHT22;6899;51.546;6.912;2023-06-14T07:50:40;27.70;39.60
13652;DHT22;6899;51.546;6.912;2023-06-14T07:53:07;28.00;40.50
13652;DHT22;6899;51.546;6.912;2023-06-14T07:55:33;27.70;39.70
13652;DHT22;6899;51.546;6.912;2023-06-14T07:58:03;28.30;39.60
13652;DHT22;6899;51.546;6.912;2023-06-14T08:00:30;28.60;38.30
13652;DHT22;6899;51.546;6.912;2023-06-14T08:02:57;28.60;38.30
13652;DHT22;6899;51.546;6.912;2023-06-14T08:05:25;28.10;39.00
13652;DHT22;6899;51.546;6.912;2023-06-14T08:07:52;27.40;39.40
13652;DHT22;6899;51.546;6.912;2023-06-14T08:10:19;27.60;40.40
13652;DHT22;6899;51.546;6.912;2023-06-14T08:12:46;27.10;40.50
13652;DHT22;6899;51.546;6.912;2023-06-14T08:15:15;27.40;41.30
13652;DHT22;6899;51.546;6.912;2023-06-14T08:17:42;27.80;40.90
13652;DHT22;6899;51.546;6.912;2023-06-14T08:20:10;27.80;39.30
13652;DHT22;6899;51.546;6.912;2023-06-14T08:22:37;27.80;40.10
13652;DHT22;6899;51.546;6.912;2023-06-14T08:25:05;27.80;39.50
13652;DHT22;6899;51.546;6.912;2023-06-14T08:27:33;27.30;40.10
13652;DHT22;6899;51.546;6.912;2023-06-14T08:29:59;28.10;40.80
13652;DHT22;6899;51.546;6.912;2023-06-14T08:32:29;28.40;39.70
13652;DHT22;6899;51.546;6.912;2023-06-14T08:34:55;28.50;38.60
13652;DHT22;6899;51.546;6.912;2023-06-14T08:37:22;28.40;39.30
13652;DHT22;6899;51.546;6.912;2023-06-14T08:39:49;28.10;38.70
13652;DHT22;6899;51.546;6.912;2023-06-14T08:42:19;27.90;39.30
13652;DHT22;6899;51.546;6.912;2023-06-14T08:44:48;27.70;39.00
13652;DHT22;6899;51.546;6.912;2023-06-14T08:47:15;27.70;39.00
13652;DHT22;6899;51.546;6.912;2023-06-14T08:49:46;27.40;39.90
13652;DHT22;6899;51.546;6.912;2023-06-14T08:52:15;27.30;39.90
13652;DHT22;6899;51.546;6.912;2023-06-14T08:54:44;27.20;39.70
13652;DHT22;6899;51.546;6.912;2023-06-14T08:57:14;27.00;39.50
13652;DHT22;6899;51.546;6.912;2023-06-14T08:59:46;26.60;40.90
13652;DHT22;6899;51.546;6.912;2023-06-14T09:02:14;26.70;39.60
13652;DHT22;6899;51.546;6.912;2023-06-14T09:04:46;26.40;41.10
13652;DHT22;6899;51.546;6.912;2023-06-14T09:07:15;26.50;42.00
13652;DHT22;6899;51.546;6.912;2023-06-14T09:09:42;25.80;39.60
13652;DHT22;6899;51.546;6.912;2023-06-14T09:12:10;25.70;41.30
13652;DHT22;6899;51.546;6.912;2023-06-14T09:14:38;25.90;40.10
13652;DHT22;6899;51.546;6.912;2023-06-14T09:17:07;25.70;40.70
13652;DHT22;6899;51.546;6.912;2023-06-14T09:19:34;25.60;40.80
13652;DHT22;6899;51.546;6.912;2023-06-14T09:22:03;25.40;40.40
13652;DHT22;6899;51.546;6.912;2023-06-14T09:24:30;25.70;41.40
13652;DHT22;6899;51.546;6.912;2023-06-14T09:26:56;25.70;40.10
13652;DHT22;6899;51.546;6.912;2023-06-14T09:29:24;26.30;38.60
13652;DHT22;6899;51.546;6.912;2023-06-14T09:31:52;26.20;37.60
13652;DHT22;6899;51.546;6.912;2023-06-14T09:34:19;26.40;38.50
13652;DHT22;6899;51.546;6.912;2023-06-14T09:36:49;26.20;38.40
13652;DHT22;6899;51.546;6.912;2023-06-14T09:39:18;26.60;37.90
13652;DHT22;6899;51.546;6.912;2023-06-14T09:41:45;26.60;38.80
13652;DHT22;6899;51.546;6.912;2023-06-14T09:44:12;26.50;37.80
13652;DHT22;6899;51.546;6.912;2023-06-14T09:46:38;26.40;38.60
13652;DHT22;6899;51.546;6.912;2023-06-14T09:49:06;26.60;38.50
13652;DHT22;6899;51.546;6.912;2023-06-14T09:51:33;26.10;37.50
13652;DHT22;6899;51.546;6.912;2023-06-14T09:54:03;26.00;37.10
13652;DHT22;6899;51.546;6.912;2023-06-14T09:56:35;26.30;38.70
13652;DHT22;6899;51.546;6.912;2023-06-14T09:59:04;26.10;38.40
13652;DHT22;6899;51.546;6.912;2023-06-14T10:01:32;26.40;38.30
13652;DHT22;6899;51.546;6.912;2023-06-14T10:04:02;26.30;38.80
13652;DHT22;6899;51.546;6.912;2023-06-14T10:06:31;25.80;38.50
13652;DHT22;6899;51.546;6.912;2023-06-14T10:08:59;25.60;39.30
13652;DHT22;6899;51.546;6.912;2023-06-14T10:11:27;25.80;40.00
13652;DHT22;6899;51.546;6.912;2023-06-14T10:13:57;26.30;38.20
13652;DHT22;6899;51.546;6.912;2023-06-14T10:16:28;26.10;38.50
13652;DHT22;6899;51.546;6.912;2023-06-14T10:19:02;26.10;39.40
13652;DHT22;6899;51.546;6.912;2023-06-14T10:21:35;26.20;37.60
13652;DHT22;6899;51.546;6.912;2023-06-14T10:24:07;26.20;38.10
13652;DHT22;6899;51.546;6.912;2023-06-14T10:26:50;26.20;38.00
13652;DHT22;6899;51.546;6.912;2023-06-14T10:29:18;26.00;38.50
13652;DHT22;6899;51.546;6.912;2023-06-14T10:31:46;25.50;38.70
13652;DHT22;6899;51.546;6.912;2023-06-14T10:34:22;25.60;39.80
13652;DHT22;6899;51.546;6.912;2023-06-14T10:37:01;26.00;39.40
13652;DHT22;6899;51.546;6.912;2023-06-14T10:39:28;26.20;38.90
13652;DHT22;6899;51.546;6.912;2023-06-14T10:41:56;25.90;38.80
13652;DHT22;6899;51.546;6.912;2023-06-14T10:44:45;25.90;39.40
13652;DHT22;6899;51.546;6.912;2023-06-14T10:47:24;26.10;38.20
13652;DHT22;6899;51.546;6.912;2023-06-14T10:49:53;26.30;39.50
13652;DHT22;6899;51.546;6.912;2023-06-14T10:52:28;26.50;40.30
13652;DHT22;6899;51.546;6.912;2023-06-14T10:55:16;26.50;37.70
13652;DHT22;6899;51.546;6.912;2023-06-14T10:57:45;26.70;38.90
13652;DHT22;6899;51.546;6.912;2023-06-14T11:00:15;27.10;38.90
13652;DHT22;6899;51.546;6.912;2023-06-14T11:05:51;27.30;37.80
13652;DHT22;6899;51.546;6.912;2023-06-14T11:08:29;27.00;37.90
13652;DHT22;6899;51.546;6.912;2023-06-14T11:11:00;27.00;39.40
13652;DHT22;6899;51.546;6.912;2023-06-14T11:13:27;27.20;38.30
13652;DHT22;6899;51.546;6.912;2023-06-14T11:15:55;27.50;38.30
13652;DHT22;6899;51.546;6.912;2023-06-14T11:18:23;27.50;37.80
13652;DHT22;6899;51.546;6.912;2023-06-14T11:20:52;27.80;38.50
13652;DHT22;6899;51.546;6.912;2023-06-14T11:23:21;28.30;37.40
13652;DHT22;6899;51.546;6.912;2023-06-14T11:25:50;28.10;37.70
13652;DHT22;6899;51.546;6.912;2023-06-14T11:28:17;27.90;37.60
13652;DHT22;6899;51.546;6.912;2023-06-14T11:30:47;27.20;37.50
13652;DHT22;6899;51.546;6.912;2023-06-14T11:33:18;26.60;37.90
13652;DHT22;6899;51.546;6.912;2023-06-14T11:35:45;26.70;38.00
13652;DHT22;6899;51.546;6.912;2023-06-14T11:38:12;26.80;38.70
13652;DHT22;6899;51.546;6.912;2023-06-14T11:40:39;26.50;39.00
13652;DHT22;6899;51.546;6.912;2023-06-14T11:43:06;27.50;39.90
13652;DHT22;6899;51.546;6.912;2023-06-14T11:45:32;27.60;38.00
13652;DHT22;6899;51.546;6.912;2023-06-14T11:47:59;27.60;38.60
13652;DHT22;6899;51.546;6.912;2023-06-14T11:50:28;27.90;37.50
13652;DHT22;6899;51.546;6.912;2023-06-14T11:52:55;27.60;36.90
13652;DHT22;6899;51.546;6.912;2023-06-14T11:55:22;27.50;36.90
13652;DHT22;6899;51.546;6.912;2023-06-14T11:57:49;27.50;37.80
13652;DHT22;6899;51.546;6.912;2023-06-14T12:00:17;28.20;37.00
13652;DHT22;6899;51.546;6.912;2023-06-14T12:02:52;28.00;36.80
13652;DHT22;6899;51.546;6.912;2023-06-14T12:05:21;27.70;37.30
13652;DHT22;6899;51.546;6.912;2023-06-14T12:07:50;27.90;37.40
13652;DHT22;6899;51.546;6.912;2023-06-14T12:10:19;28.30;36.80
13652;DHT22;6899;51.546;6.912;2023-06-14T12:12:45;28.40;36.70
13652;DHT22;6899;51.546;6.912;2023-06-14T12:15:12;28.30;36.70
13652;DHT22;6899;51.546;6.912;2023-06-14T12:17:39;28.30;35.70
13652;DHT22;6899;51.546;6.912;2023-06-14T12:20:09;28.00;37.40
13652;DHT22;6899;51.546;6.912;2023-06-14T12:22:39;27.90;37.10
13652;DHT22;6899;51.546;6.912;2023-06-14T12:25:08;27.70;37.40
13652;DHT22;6899;51.546;6.912;2023-06-14T12:27:35;28.30;37.30
13652;DHT22;6899;51.546;6.912;2023-06-14T12:30:03;28.40;35.90
13652;DHT22;6899;51.546;6.912;2023-06-14T12:32:30;28.60;36.20
13652;DHT22;6899;51.546;6.912;2023-06-14T12:34:57;28.30;35.60
13652;DHT22;6899;51.546;6.912;2023-06-14T12:37:24;28.30;36.10
13652;DHT22;6899;51.546;6.912;2023-06-14T12:39:51;27.90;35.90
13652;DHT22;6899;51.546;6.912;2023-06-14T12:42:19;28.40;37.80
13652;DHT22;6899;51.546;6.912;2023-06-14T12:44:46;28.50;35.60
13652;DHT22;6899;51.546;6.912;2023-06-14T12:47:12;28.40;35.20
13652;DHT22;6899;51.546;6.912;2023-06-14T12:49:39;28.40;36.20
13652;DHT22;6899;51.546;6.912;2023-06-14T12:52:08;28.80;36.90
13652;DHT22;6899;51.546;6.912;2023-06-14T12:54:35;29.00;34.90
13652;DHT22;6899;51.546;6.912;2023-06-14T12:57:02;29.00;35.40
13652;DHT22;6899;51.546;6.912;2023-06-14T12:59:30;28.70;35.30
13652;DHT22;6899;51.546;6.912;2023-06-14T13:02:02;28.70;36.10
13652;DHT22;6899;51.546;6.912;2023-06-14T13:04:36;28.60;37.50
13652;DHT22;6899;51.546;6.912;2023-06-14T13:07:03;29.00;36.20
13652;DHT22;6899;51.546;6.912;2023-06-14T13:09:30;28.70;36.60
13652;DHT22;6899;51.546;6.912;2023-06-14T13:11:56;29.20;35.70
13652;DHT22;6899;51.546;6.912;2023-06-14T13:14:24;29.60;34.80
13652;DHT22;6899;51.546;6.912;2023-06-14T13:16:52;29.50;34.80
13652;DHT22;6899;51.546;6.912;2023-06-14T13:19:20;29.10;34.70
13652;DHT22;6899;51.546;6.912;2023-06-14T13:21:48;29.10;35.10
13652;DHT22;6899;51.546;6.912;2023-06-14T13:24:14;28.90;35.50
13652;DHT22;6899;51.546;6.912;2023-06-14T13:26:41;28.70;36.90
13652;DHT22;6899;51.546;6.912;2023-06-14T13:29:08;28.80;36.30
13652;DHT22;6899;51.546;6.912;2023-06-14T13:31:35;28.80;34.70
13652;DHT22;6899;51.546;6.912;2023-06-14T13:34:04;29.30;35.80
13652;DHT22;6899;51.546;6.912;2023-06-14T13:36:31;29.00;34.70
13652;DHT22;6899;51.546;6.912;2023-06-14T13:38:58;29.50;34.30
13652;DHT22;6899;51.546;6.912;2023-06-14T13:41:26;29.30;35.00
13652;DHT22;6899;51.546;6.912;2023-06-14T13:43:57;29.60;35.90
13652;DHT22;6899;51.546;6.912;2023-06-14T13:46:24;29.60;34.40
13652;DHT22;6899;51.546;6.912;2023-06-14T13:48:51;29.90;34.70
13652;DHT22;6899;51.546;6.912;2023-06-14T13:51:19;29.90;32.90
13652;DHT22;6899;51.546;6.912;2023-06-14T13:53:46;29.50;33.00
13652;DHT22;6899;51.546;6.912;2023-06-14T13:56:13;29.70;33.70
13652;DHT22;6899;51.546;6.912;2023-06-14T13:58:40;29.90;34.50
13652;DHT22;6899;51.546;6.912;2023-06-14T14:01:08;30.40;33.60
13652;DHT22;6899;51.546;6.912;2023-06-14T14:03:35;29.60;33.00
13652;DHT22;6899;51.546;6.912;2023-06-14T14:06:02;29.20;34.80
13652;DHT22;6899;51.546;6.912;2023-06-14T14:08:31;29.50;33.90
13652;DHT22;6899;51.546;6.912;2023-06-14T14:10:58;29.80;34.60
13652;DHT22;6899;51.546;6.912;2023-06-14T14:13:26;30.40;33.40
13652;DHT22;6899;51.546;6.912;2023-06-14T14:15:53;30.70;33.50
13652;DHT22;6899;51.546;6.912;2023-06-14T14:18:20;30.00;32.50
13652;DHT22;6899;51.546;6.912;2023-06-14T14:20:47;30.10;33.40
13652;DHT22;6899;51.546;6.912;2023-06-14T14:23:14;29.50;33.60
13652;DHT22;6899;51.546;6.912;2023-06-14T14:25:42;29.80;34.90
13652;DHT22;6899;51.546;6.912;2023-06-14T14:28:09;30.10;33.80
13652;DHT22;6899;51.546;6.912;2023-06-14T14:30:36;29.70;33.40
13652;DHT22;6899;51.546;6.912;2023-06-14T14:33:05;30.00;34.10
13652;DHT22;6899;51.546;6.912;2023-06-14T14:35:33;29.80;33.10
13652;DHT22;6899;51.546;6.912;2023-06-14T14:38:00;29.70;34.80
13652;DHT22;6899;51.546;6.912;2023-06-14T14:40:28;30.10;33.40
13652;DHT22;6899;51.546;6.912;2023-06-14T14:42:56;30.70;32.80
13652;DHT22;6899;51.546;6.912;2023-06-14T14:45:23;30.60;33.20
13652;DHT22;6899;51.546;6.912;2023-06-14T14:47:50;31.30;33.00
13652;DHT22;6899;51.546;6.912;2023-06-14T14:50:17;31.40;32.00
13652;DHT22;6899;51.546;6.912;2023-06-14T14:52:44;31.50;32.10
13652;DHT22;6899;51.546;6.912;2023-06-14T14:55:11;31.50;31.50
13652;DHT22;6899;51.546;6.912;2023-06-14T14:57:37;31.10;31.20
13652;DHT22;6899;51.546;6.912;2023-06-14T15:00:07;30.70;32.90
13652;DHT22;6899;51.546;6.912;2023-06-14T15:02:35;30.30;32.80
13652;DHT22;6899;51.546;6.912;2023-06-14T15:05:01;30.20;33.40
13652;DHT22;6899;51.546;6.912;2023-06-14T15:07:30;30.60;33.20
13652;DHT22;6899;51.546;6.912;2023-06-14T15:09:57;30.60;32.30
13652;DHT22;6899;51.546;6.912;2023-06-14T15:12:24;31.20;31.80
13652;DHT22;6899;51.546;6.912;2023-06-14T15:14:51;31.00;31.40
13652;DHT22;6899;51.546;6.912;2023-06-14T15:17:19;31.30;30.40
13652;DHT22;6899;51.546;6.912;2023-06-14T15:19:47;31.10;31.00
13652;DHT22;6899;51.546;6.912;2023-06-14T15:22:14;30.90;31.90
13652;DHT22;6899;51.546;6.912;2023-06-14T15:24:41;30.80;30.70
13652;DHT22;6899;51.546;6.912;2023-06-14T15:27:08;31.30;31.30
13652;DHT22;6899;51.546;6.912;2023-06-14T15:29:37;31.10;32.20
13652;DHT22;6899;51.546;6.912;2023-06-14T15:32:05;31.30;31.30
13652;DHT22;6899;51.546;6.912;2023-06-14T15:34:34;31.40;31.40
13652;DHT22;6899;51.546;6.912;2023-06-14T15:37:01;31.50;31.00
13652;DHT22;6899;51.546;6.912;2023-06-14T15:39:29;31.60;31.10
13652;DHT22;6899;51.546;6.912;2023-06-14T15:41:57;31.20;30.50
13652;DHT22;6899;51.546;6.912;2023-06-14T15:44:25;30.10;32.20
13652;DHT22;6899;51.546;6.912;2023-06-14T15:46:52;29.70;32.50
13652;DHT22;6899;51.546;6.912;2023-06-14T15:52:42;30.60;32.00
13652;DHT22;6899;51.546;6.912;2023-06-14T15:55:09;31.10;31.20
13652;DHT22;6899;51.546;6.912;2023-06-14T15:57:35;30.90;31.20